sensor_id;sensor_type;location;lat;lon;timestamp;pressure;altitude;pressure_sealevel;temperature;humidity
6134;BME280;3098;42.678;23.364;2023-02-15T00:00:31;96104.03;;;1.20;100.00
6134;BME280;3098;42.678;23.364;2023-02-15T00:02:58;96096.63;;;1.17;100.00
6134;BME280;3098;42.678;23.364;2023-02-15T00:05:25;96084.22;;;0.94;100.00
6134;BME280;3098;42.678;23.364;2023-02-15T00:07:54;96046.31;;;0.74;100.00
6134;BME280;3098;42.678;23.364;2023-02-15T00:10:22;96109.34;;;1.13;100.00
6134;BME280;3098;42.678;23.364;2023-02-15T00:12:49;96113.91;;;1.18;100.00
6134;BME280;3098;42.678;23.364;2023-02-15T00:15:18;96112.53;;;1.15;100.00
6134;BME280;3098;42.678;23.364;2023-02-15T00:17:47;96126.09;;;1.06;100.00
6134;BME280;3098;42.678;23.364;2023-02-15T00:20:15;96073.13;;;0.81;100.00
6134;BME280;3098;42.678;23.364;2023-02-15T00:22:42;96119.19;;;1.11;100.00
6134;BME280;3098;42.678;23.364;2023-02-15T00:25:10;96118.63;;;1.09;100.00
6134;BME280;3098;42.678;23.364;2023-02-15T00:27:38;96124.84;;;1.08;100.00
6134;BME280;3098;42.678;23.364;2023-02-15T00:30:07;96102.38;;;0.89;100.00
6134;BME280;3098;42.678;23.364;2023-02-15T00:32:34;96131.56;;;1.04;100.00
6134;BME280;3098;42.678;23.364;2023-02-15T00:35:04;96127.56;;;1.02;100.00
6134;BME280;3098;42.678;23.364;2023-02-15T00:37:32;96126.75;;;1.01;100.00
6134;BME280;3098;42.678;23.364;2023-02-15T00:39:59;95881.94;;;-0.60;100.00
6134;BME280;3098;42.678;23.364;2023-02-15T00:42:26;96134.66;;;0.95;100.00
6134;BME280;3098;42.678;23.364;2023-02-15T00:44:54;96053.91;;;0.39;100.00
6134;BME280;3098;42.678;23.364;2023-02-15T00:47:21;96125.31;;;0.87;100.00
6134;BME280;3098;42.678;23.364;2023-02-15T00:49:50;96088.78;;;0.63;100.00
6134;BME280;3098;42.678;23.364;2023-02-15T00:52:19;96111.75;;;0.79;100.00
6134;BME280;3098;42.678;23.364;2023-02-15T00:54:46;96038.31;;;0.32;100.00
6134;BME280;3098;42.678;23.364;2023-02-15T00:57:14;96125.69;;;0.91;100.00
6134;BME280;3098;42.678;23.364;2023-02-15T00:59:41;96091.47;;;0.56;100.00
6134;BME280;3098;42.678;23.364;2023-02-15T01:02:10;96004.06;;;0.04;100.00
6134;BME280;3098;42.678;23.364;2023-02-15T01:04:37;95959.97;;;-0.22;100.00
6134;BME280;3098;42.678;23.364;2023-02-15T01:07:04;96087.50;;;0.53;100.00
6134;BME280;3098;42.678;23.364;2023-02-15T01:09:34;96119.78;;;0.77;100.00
6134;BME280;3098;42.678;23.364;2023-02-15T01:12:01;96012.13;;;0.03;100.00
6134;BME280;3098;42.678;23.364;2023-02-15T01:14:28;96119.84;;;0.71;100.00
6134;BME280;3098;42.678;23.364;2023-02-15T01:16:55;96115.78;;;0.75;100.00
6134;BME280;3098;42.678;23.364;2023-02-15T01:19:23;96102.66;;;0.63;100.00
6134;BME280;3098;42.678;23.364;2023-02-15T01:21:50;96099.41;;;0.68;100.00
6134;BME280;3098;42.678;23.364;2023-02-15T01:24:18;96115.22;;;0.73;100.00
6134;BME280;3098;42.678;23.364;2023-02-15T01:26:47;96120.16;;;0.81;100.00
6134;BME280;3098;42.678;23.364;2023-02-15T01:29:14;96106.38;;;0.74;100.00
6134;BME280;3098;42.678;23.364;2023-02-15T01:31:41;96111.22;;;0.70;100.00
6134;BME280;3098;42.678;23.364;2023-02-15T01:34:08;96072.47;;;0.49;100.00
6134;BME280;3098;42.678;23.364;2023-02-15T01:36:36;96071.88;;;0.47;100.00
6134;BME280;3098;42.678;23.364;2023-02-15T01:39:03;96076.03;;;0.54;100.00
6134;BME280;3098;42.678;23.364;2023-02-15T01:41:30;96104.91;;;0.78;100.00
6134;BME280;3098;42.678;23.364;2023-02-15T01:44:01;96099.69;;;0.78;100.00
6134;BME280;3098;42.678;23.364;2023-02-15T01:46:34;96096.50;;;0.76;100.00
6134;BME280;3098;42.678;23.364;2023-02-15T01:49:04;96099.75;;;0.71;100.00
6134;BME280;3098;42.678;23.364;2023-02-15T01:51:37;96094.31;;;0.73;100.00
6134;BME280;3098;42.678;23.364;2023-02-15T01:54:11;96101.34;;;0.72;100.00
6134;BME280;3098;42.678;23.364;2023-02-15T01:56:42;96091.78;;;0.66;100.00
6134;BME280;3098;42.678;23.364;2023-02-15T01:59:13;96046.94;;;0.33;100.00
6134;BME280;3098;42.678;23.364;2023-02-15T02:01:41;96055.72;;;0.38;100.00
6134;BME280;3098;42.678;23.364;2023-02-15T02:04:15;96095.47;;;0.58;100.00
6134;BME280;3098;42.678;23.364;2023-02-15T02:06:46;96010.03;;;0.11;100.00
6134;BME280;3098;42.678;23.364;2023-02-15T02:09:15;96087.59;;;0.65;100.00
6134;BME280;3098;42.678;23.364;2023-02-15T02:11:45;96073.41;;;0.54;100.00
6134;BME280;3098;42.678;23.364;2023-02-15T02:14:15;95968.63;;;-0.04;100.00
6134;BME280;3098;42.678;23.364;2023-02-15T02:16:51;96100.97;;;0.69;100.00
6134;BME280;3098;42.678;23.364;2023-02-15T02:19:54;95982.16;;;-0.13;100.00
6134;BME280;3098;42.678;23.364;2023-02-15T02:22:49;96109.75;;;0.56;100.00
6134;BME280;3098;42.678;23.364;2023-02-15T02:29:05;96066.19;;;0.32;100.00
6134;BME280;3098;42.678;23.364;2023-02-15T02:32:02;96106.63;;;0.66;100.00
6134;BME280;3098;42.678;23.364;2023-02-15T02:34:42;96108.53;;;0.77;100.00
6134;BME280;3098;42.678;23.364;2023-02-15T02:37:18;96084.38;;;0.45;100.00
6134;BME280;3098;42.678;23.364;2023-02-15T02:39:54;96045.22;;;0.20;100.00
6134;BME280;3098;42.678;23.364;2023-02-15T02:42:29;96048.78;;;0.26;100.00
6134;BME280;3098;42.678;23.364;2023-02-15T02:45:02;96056.41;;;0.27;100.00
6134;BME280;3098;42.678;23.364;2023-02-15T02:47:33;96081.97;;;0.43;100.00
6134;BME280;3098;42.678;23.364;2023-02-15T02:50:06;96074.72;;;0.45;100.00
6134;BME280;3098;42.678;23.364;2023-02-15T02:52:40;96113.03;;;0.70;100.00
6134;BME280;3098;42.678;23.364;2023-02-15T02:55:11;96108.81;;;0.69;100.00
6134;BME280;3098;42.678;23.364;2023-02-15T02:57:43;96113.59;;;0.72;100.00
6134;BME280;3098;42.678;23.364;2023-02-15T03:00:15;96091.47;;;0.56;100.00
6134;BME280;3098;42.678;23.364;2023-02-15T03:02:45;96115.72;;;0.81;100.00
6134;BME280;3098;42.678;23.364;2023-02-15T03:05:19;96115.34;;;0.78;100.00
6134;BME280;3098;42.678;23.364;2023-02-15T03:07:50;96102.59;;;0.70;100.00
6134;BME280;3098;42.678;23.364;2023-02-15T03:10:21;96126.75;;;0.83;100.00
6134;BME280;3098;42.678;23.364;2023-02-15T03:12:50;96127.97;;;0.81;100.00
6134;BME280;3098;42.678;23.364;2023-02-15T03:15:20;96007.19;;;0.13;100.00
6134;BME280;3098;42.678;23.364;2023-02-15T03:17:51;95924.88;;;-0.44;100.00
6134;BME280;3098;42.678;23.364;2023-02-15T03:20:26;95993.50;;;0.17;100.00
6134;BME280;3098;42.678;23.364;2023-02-15T03:22:59;96110.34;;;0.94;100.00
6134;BME280;3098;42.678;23.364;2023-02-15T03:25:30;96089.69;;;0.93;100.00
6134;BME280;3098;42.678;23.364;2023-02-15T03:28:03;96097.59;;;1.04;100.00
6134;BME280;3098;42.678;23.364;2023-02-15T03:30:33;96095.63;;;1.00;100.00
6134;BME280;3098;42.678;23.364;2023-02-15T03:33:03;96084.16;;;1.01;100.00
6134;BME280;3098;42.678;23.364;2023-02-15T03:35:36;96103.75;;;1.10;100.00
6134;BME280;3098;42.678;23.364;2023-02-15T03:38:08;96083.94;;;1.02;100.00
6134;BME280;3098;42.678;23.364;2023-02-15T03:40:38;96126.81;;;1.31;100.00
6134;BME280;3098;42.678;23.364;2023-02-15T03:43:30;95838.94;;;-0.51;100.00
6134;BME280;3098;42.678;23.364;2023-02-15T03:46:03;96078.13;;;1.00;100.00
6134;BME280;3098;42.678;23.364;2023-02-15T03:48:36;96114.91;;;1.17;100.00
6134;BME280;3098;42.678;23.364;2023-02-15T03:51:10;96100.09;;;1.11;100.00
6134;BME280;3098;42.678;23.364;2023-02-15T03:53:57;96089.38;;;1.01;100.00
6134;BME280;3098;42.678;23.364;2023-02-15T03:56:25;96122.38;;;1.32;100.00
6134;BME280;3098;42.678;23.364;2023-02-15T03:58:53;96085.03;;;1.13;100.00
6134;BME280;3098;42.678;23.364;2023-02-15T04:01:40;96128.47;;;1.44;100.00
6134;BME280;3098;42.678;23.364;2023-02-15T04:04:32;96081.66;;;1.24;100.00
6134;BME280;3098;42.678;23.364;2023-02-15T04:07:03;96065.50;;;1.15;100.00
6134;BME280;3098;42.678;23.364;2023-02-15T04:09:30;96131.13;;;1.55;100.00
6134;BME280;3098;42.678;23.364;2023-02-15T04:12:15;96130.09;;;1.56;100.00
6134;BME280;3098;42.678;23.364;2023-02-15T04:14:42;96071.97;;;1.13;100.00
6134;BME280;3098;42.678;23.364;2023-02-15T04:17:27;96117.69;;;1.52;100.00
6134;BME280;3098;42.678;23.364;2023-02-15T04:19:55;95993.19;;;0.80;100.00
6134;BME280;3098;42.678;23.364;2023-02-15T04:22:41;96072.72;;;1.32;100.00
6134;BME280;3098;42.678;23.364;2023-02-15T04:25:26;96145.44;;;1.83;100.00
6134;BME280;3098;42.678;23.364;2023-02-15T04:27:54;96131.41;;;1.65;100.00
6134;BME280;3098;42.678;23.364;2023-02-15T04:30:22;96147.00;;;1.72;100.00
6134;BME280;3098;42.678;23.364;2023-02-15T04:32:49;96146.56;;;1.75;100.00
6134;BME280;3098;42.678;23.364;2023-02-15T04:35:18;96141.53;;;1.73;100.00
6134;BME280;3098;42.678;23.364;2023-02-15T04:37:49;96122.84;;;1.58;100.00
6134;BME280;3098;42.678;23.364;2023-02-15T04:40:17;96181.53;;;1.92;100.00
6134;BME280;3098;42.678;23.364;2023-02-15T04:42:44;96142.78;;;1.71;100.00
6134;BME280;3098;42.678;23.364;2023-02-15T04:45:11;96173.94;;;2.02;100.00
6134;BME280;3098;42.678;23.364;2023-02-15T04:47:38;96160.06;;;2.02;100.00
6134;BME280;3098;42.678;23.364;2023-02-15T04:50:07;96162.69;;;2.02;100.00
6134;BME280;3098;42.678;23.364;2023-02-15T04:52:35;96167.03;;;2.08;100.00
6134;BME280;3098;42.678;23.364;2023-02-15T04:55:04;96100.56;;;1.56;100.00
6134;BME280;3098;42.678;23.364;2023-02-15T04:57:31;95989.94;;;0.84;100.00
6134;BME280;3098;42.678;23.364;2023-02-15T04:59:59;96177.00;;;1.99;100.00
6134;BME280;3098;42.678;23.364;2023-02-15T05:02:27;96121.38;;;1.62;100.00
6134;BME280;3098;42.678;23.364;2023-02-15T05:04:54;96157.63;;;1.89;100.00
6134;BME280;3098;42.678;23.364;2023-02-15T05:07:21;96179.97;;;2.03;100.00
6134;BME280;3098;42.678;23.364;2023-02-15T05:09:49;96180.56;;;2.05;100.00
6134;BME280;3098;42.678;23.364;2023-02-15T05:12:18;96146.25;;;1.83;100.00
6134;BME280;3098;42.678;23.364;2023-02-15T05:14:45;96146.38;;;1.88;100.00
6134;BME280;3098;42.678;23.364;2023-02-15T05:17:12;96190.94;;;2.11;100.00
6134;BME280;3098;42.678;23.364;2023-02-15T05:19:39;96188.06;;;2.13;100.00
6134;BME280;3098;42.678;23.364;2023-02-15T05:22:06;96187.06;;;2.14;100.00
6134;BME280;3098;42.678;23.364;2023-02-15T05:24:33;96192.97;;;2.09;100.00
6134;BME280;3098;42.678;23.364;2023-02-15T05:27:19;96175.06;;;1.95;100.00
6134;BME280;3098;42.678;23.364;2023-02-15T05:30:04;96173.03;;;1.97;100.00
6134;BME280;3098;42.678;23.364;2023-02-15T05:32:37;96209.66;;;2.26;100.00
6134;BME280;3098;42.678;23.364;2023-02-15T05:35:06;96201.66;;;2.21;100.00
6134;BME280;3098;42.678;23.364;2023-02-15T05:37:34;96167.91;;;2.02;100.00
6134;BME280;3098;42.678;23.364;2023-02-15T05:40:01;96232.63;;;2.24;100.00
6134;BME280;3098;42.678;23.364;2023-02-15T05:42:31;96203.53;;;2.33;100.00
6134;BME280;3098;42.678;23.364;2023-02-15T05:45:00;96074.06;;;1.52;100.00
6134;BME280;3098;42.678;23.364;2023-02-15T05:47:30;96169.31;;;2.16;100.00
6134;BME280;3098;42.678;23.364;2023-02-15T05:49:57;96211.16;;;2.46;100.00
6134;BME280;3098;42.678;23.364;2023-02-15T05:52:24;96162.38;;;2.21;100.00
6134;BME280;3098;42.678;23.364;2023-02-15T05:54:52;96207.72;;;2.86;100.00
6134;BME280;3098;42.678;23.364;2023-02-15T05:57:20;96219.53;;;3.24;100.00
6134;BME280;3098;42.678;23.364;2023-02-15T05:59:48;96172.56;;;3.22;100.00
6134;BME280;3098;42.678;23.364;2023-02-15T06:02:17;96206.66;;;3.34;100.00
6134;BME280;3098;42.678;23.364;2023-02-15T06:04:45;96121.25;;;2.63;100.00
6134;BME280;3098;42.678;23.364;2023-02-15T06:07:12;96218.50;;;3.02;100.00
6134;BME280;3098;42.678;23.364;2023-02-15T06:09:41;96220.91;;;2.80;100.00
6134;BME280;3098;42.678;23.364;2023-02-15T06:12:08;96206.19;;;2.79;100.00
6134;BME280;3098;42.678;23.364;2023-02-15T06:14:36;96053.31;;;1.81;100.00
6134;BME280;3098;42.678;23.364;2023-02-15T06:17:06;96211.78;;;2.82;100.00
6134;BME280;3098;42.678;23.364;2023-02-15T06:19:34;96214.75;;;2.86;100.00
6134;BME280;3098;42.678;23.364;2023-02-15T06:22:02;96142.47;;;2.09;100.00
6134;BME280;3098;42.678;23.364;2023-02-15T06:24:29;96195.16;;;2.65;100.00
6134;BME280;3098;42.678;23.364;2023-02-15T06:26:57;95988.88;;;1.33;100.00
6134;BME280;3098;42.678;23.364;2023-02-15T06:29:25;96225.25;;;2.86;100.00
6134;BME280;3098;42.678;23.364;2023-02-15T06:31:55;96209.53;;;2.86;100.00
6134;BME280;3098;42.678;23.364;2023-02-15T06:34:25;96183.31;;;2.74;100.00
6134;BME280;3098;42.678;23.364;2023-02-15T06:36:53;95976.94;;;1.37;100.00
6134;BME280;3098;42.678;23.364;2023-02-15T06:39:24;96025.53;;;1.68;100.00
6134;BME280;3098;42.678;23.364;2023-02-15T06:41:52;96164.88;;;2.69;100.00
6134;BME280;3098;42.678;23.364;2023-02-15T06:44:21;95942.16;;;1.37;100.00
6134;BME280;3098;42.678;23.364;2023-02-15T06:46:50;96119.63;;;2.51;100.00
6134;BME280;3098;42.678;23.364;2023-02-15T06:49:18;95993.16;;;1.81;100.00
6134;BME280;3098;42.678;23.364;2023-02-15T06:51:48;95995.66;;;1.99;100.00
6134;BME280;3098;42.678;23.364;2023-02-15T06:54:18;96220.75;;;3.56;100.00
6134;BME280;3098;42.678;23.364;2023-02-15T06:56:47;96210.84;;;3.46;100.00
6134;BME280;3098;42.678;23.364;2023-02-15T06:59:14;96177.34;;;3.37;100.00
6134;BME280;3098;42.678;23.364;2023-02-15T07:01:42;96192.84;;;3.27;100.00
6134;BME280;3098;42.678;23.364;2023-02-15T07:04:11;96171.84;;;3.50;100.00
6134;BME280;3098;42.678;23.364;2023-02-15T07:06:39;96217.09;;;3.97;100.00
6134;BME280;3098;42.678;23.364;2023-02-15T07:09:09;96174.31;;;3.68;100.00
6134;BME280;3098;42.678;23.364;2023-02-15T07:11:36;96218.22;;;4.01;100.00
6134;BME280;3098;42.678;23.364;2023-02-15T07:14:21;96024.97;;;2.82;99.90
6134;BME280;3098;42.678;23.364;2023-02-15T07:16:48;95994.59;;;2.69;100.00
6134;BME280;3098;42.678;23.364;2023-02-15T07:19:15;96037.50;;;3.20;99.08
6134;BME280;3098;42.678;23.364;2023-02-15T07:21:43;96090.00;;;3.36;97.66
6134;BME280;3098;42.678;23.364;2023-02-15T07:24:14;96236.69;;;4.34;98.31
6134;BME280;3098;42.678;23.364;2023-02-15T07:26:41;96174.09;;;3.86;97.28
6134;BME280;3098;42.678;23.364;2023-02-15T07:29:12;96229.31;;;4.48;97.18
6134;BME280;3098;42.678;23.364;2023-02-15T07:31:42;96141.47;;;4.11;95.91
6134;BME280;3098;42.678;23.364;2023-02-15T07:34:12;96023.13;;;3.22;95.06
6134;BME280;3098;42.678;23.364;2023-02-15T07:36:40;96196.34;;;4.40;95.64
6134;BME280;3098;42.678;23.364;2023-02-15T07:39:10;96084.47;;;3.78;94.82
6134;BME280;3098;42.678;23.364;2023-02-15T07:41:41;96196.47;;;4.62;94.10
6134;BME280;3098;42.678;23.364;2023-02-15T07:44:12;96216.03;;;5.04;92.79
6134;BME280;3098;42.678;23.364;2023-02-15T07:46:42;96118.44;;;5.01;90.84
6134;BME280;3098;42.678;23.364;2023-02-15T07:49:11;96212.22;;;5.50;90.26
6134;BME280;3098;42.678;23.364;2023-02-15T07:51:40;96218.47;;;5.88;88.34
6134;BME280;3098;42.678;23.364;2023-02-15T07:54:09;96143.53;;;5.30;87.65
6134;BME280;3098;42.678;23.364;2023-02-15T07:56:36;95992.47;;;4.01;88.33
6134;BME280;3098;42.678;23.364;2023-02-15T07:59:07;95978.78;;;3.49;88.37
6134;BME280;3098;42.678;23.364;2023-02-15T08:01:39;96103.34;;;4.58;88.86
6134;BME280;3098;42.678;23.364;2023-02-15T08:04:08;96171.44;;;4.76;90.46
6134;BME280;3098;42.678;23.364;2023-02-15T08:06:37;96216.59;;;5.06;90.28
6134;BME280;3098;42.678;23.364;2023-02-15T08:09:07;96217.88;;;5.04;90.77
6134;BME280;3098;42.678;23.364;2023-02-15T08:11:40;96085.22;;;4.56;89.71
6134;BME280;3098;42.678;23.364;2023-02-15T08:14:11;96166.78;;;5.38;88.49
6134;BME280;3098;42.678;23.364;2023-02-15T08:16:41;96217.50;;;5.94;86.98
6134;BME280;3098;42.678;23.364;2023-02-15T08:19:13;95940.72;;;4.18;85.92
6134;BME280;3098;42.678;23.364;2023-02-15T08:21:43;96151.19;;;5.32;86.39
6134;BME280;3098;42.678;23.364;2023-02-15T08:24:14;96064.22;;;4.78;86.82
6134;BME280;3098;42.678;23.364;2023-02-15T08:26:43;96177.53;;;5.37;87.16
6134;BME280;3098;42.678;23.364;2023-02-15T08:29:15;96221.88;;;5.45;87.51
6134;BME280;3098;42.678;23.364;2023-02-15T08:31:47;96174.56;;;4.56;88.68
6134;BME280;3098;42.678;23.364;2023-02-15T08:34:19;96120.44;;;3.94;90.02
6134;BME280;3098;42.678;23.364;2023-02-15T08:36:48;96228.53;;;4.64;91.38
6134;BME280;3098;42.678;23.364;2023-02-15T08:39:16;96219.53;;;4.60;91.53
6134;BME280;3098;42.678;23.364;2023-02-15T08:41:55;96001.06;;;3.35;90.78
6134;BME280;3098;42.678;23.364;2023-02-15T08:44:25;96067.19;;;3.65;90.38
6134;BME280;3098;42.678;23.364;2023-02-15T08:46:54;96192.13;;;4.39;90.77
6134;BME280;3098;42.678;23.364;2023-02-15T08:49:24;96144.59;;;4.41;90.39
6134;BME280;3098;42.678;23.364;2023-02-15T08:51:52;96171.81;;;4.51;89.75
6134;BME280;3098;42.678;23.364;2023-02-15T08:54:21;96196.84;;;4.71;89.58
6134;BME280;3098;42.678;23.364;2023-02-15T08:56:51;96231.34;;;4.91;89.41
6134;BME280;3098;42.678;23.364;2023-02-15T08:59:21;96028.94;;;3.24;89.44
6134;BME280;3098;42.678;23.364;2023-02-15T09:01:52;96225.69;;;4.99;88.00
6134;BME280;3098;42.678;23.364;2023-02-15T09:04:21;96232.69;;;4.93;86.78
6134;BME280;3098;42.678;23.364;2023-02-15T09:06:50;96238.09;;;5.03;86.33
6134;BME280;3098;42.678;23.364;2023-02-15T09:09:19;96235.38;;;5.15;85.60
6134;BME280;3098;42.678;23.364;2023-02-15T09:11:50;96181.28;;;5.19;83.96
6134;BME280;3098;42.678;23.364;2023-02-15T09:14:24;96241.16;;;5.89;82.77
6134;BME280;3098;42.678;23.364;2023-02-15T09:16:54;96196.53;;;5.39;82.22
6134;BME280;3098;42.678;23.364;2023-02-15T09:19:23;96101.63;;;4.47;82.50
6134;BME280;3098;42.678;23.364;2023-02-15T09:21:52;96151.91;;;4.89;82.87
6134;BME280;3098;42.678;23.364;2023-02-15T09:24:20;96030.94;;;4.45;82.04
6134;BME280;3098;42.678;23.364;2023-02-15T09:26:48;96138.81;;;5.10;81.99
6134;BME280;3098;42.678;23.364;2023-02-15T09:29:18;96055.13;;;4.47;81.47
6134;BME280;3098;42.678;23.364;2023-02-15T09:31:47;96237.41;;;5.46;81.94
6134;BME280;3098;42.678;23.364;2023-02-15T09:34:18;96014.88;;;3.92;81.31
6134;BME280;3098;42.678;23.364;2023-02-15T09:36:46;96236.88;;;5.44;81.86
6134;BME280;3098;42.678;23.364;2023-02-15T09:39:16;96232.31;;;5.78;82.21
6134;BME280;3098;42.678;23.364;2023-02-15T09:47:43;95987.84;;;4.25;78.66
6134;BME280;3098;42.678;23.364;2023-02-15T09:50:22;96139.84;;;5.31;79.11
6134;BME280;3098;42.678;23.364;2023-02-15T09:53:07;96213.16;;;6.04;79.20
6134;BME280;3098;42.678;23.364;2023-02-15T09:55:46;96213.06;;;5.77;79.71
6134;BME280;3098;42.678;23.364;2023-02-15T09:58:26;96189.31;;;5.72;79.96
6134;BME280;3098;42.678;23.364;2023-02-15T10:01:03;96213.66;;;6.01;79.39
6134;BME280;3098;42.678;23.364;2023-02-15T10:03:42;96222.00;;;6.20;78.58
6134;BME280;3098;42.678;23.364;2023-02-15T10:06:30;96219.63;;;6.45;77.34
6134;BME280;3098;42.678;23.364;2023-02-15T10:09:06;96077.09;;;5.88;75.65
6134;BME280;3098;42.678;23.364;2023-02-15T10:11:52;96113.38;;;6.40;75.60
6134;BME280;3098;42.678;23.364;2023-02-15T10:14:38;96208.63;;;7.22;74.61
6134;BME280;3098;42.678;23.364;2023-02-15T10:17:19;96209.59;;;7.06;73.43
6134;BME280;3098;42.678;23.364;2023-02-15T10:19:54;96235.59;;;6.92;73.51
6134;BME280;3098;42.678;23.364;2023-02-15T10:22:40;96158.00;;;6.51;73.55
6134;BME280;3098;42.678;23.364;2023-02-15T10:25:23;96200.31;;;6.98;73.86
6134;BME280;3098;42.678;23.364;2023-02-15T10:27:58;96213.41;;;6.88;72.28
6134;BME280;3098;42.678;23.364;2023-02-15T10:30:38;96207.34;;;6.87;72.71
6134;BME280;3098;42.678;23.364;2023-02-15T10:33:16;96204.28;;;7.42;71.49
6134;BME280;3098;42.678;23.364;2023-02-15T10:36:01;96142.03;;;6.63;71.48
6134;BME280;3098;42.678;23.364;2023-02-15T10:38:38;96189.09;;;6.49;74.46
6134;BME280;3098;42.678;23.364;2023-02-15T10:41:18;96180.84;;;6.41;74.14
6134;BME280;3098;42.678;23.364;2023-02-15T10:44:08;96186.03;;;6.62;74.95
6134;BME280;3098;42.678;23.364;2023-02-15T10:47:07;95876.91;;;6.25;70.91
6134;BME280;3098;42.678;23.364;2023-02-15T10:49:58;96053.97;;;8.38;64.57
6134;BME280;3098;42.678;23.364;2023-02-15T10:52:41;96034.91;;;7.91;63.97
6134;BME280;3098;42.678;23.364;2023-02-15T10:55:20;96157.09;;;8.84;63.21
6134;BME280;3098;42.678;23.364;2023-02-15T10:58:05;96160.00;;;8.72;63.20
6134;BME280;3098;42.678;23.364;2023-02-15T11:00:43;96068.97;;;7.77;63.96
6134;BME280;3098;42.678;23.364;2023-02-15T11:03:24;96169.13;;;7.99;66.42
6134;BME280;3098;42.678;23.364;2023-02-15T11:06:02;96167.66;;;8.89;64.02
6134;BME280;3098;42.678;23.364;2023-02-15T11:08:37;96175.06;;;8.87;62.94
6134;BME280;3098;42.678;23.364;2023-02-15T11:11:10;96125.59;;;8.87;61.95
6134;BME280;3098;42.678;23.364;2023-02-15T11:13:41;96038.84;;;8.69;60.82
6134;BME280;3098;42.678;23.364;2023-02-15T11:16:15;96123.22;;;8.60;62.23
6134;BME280;3098;42.678;23.364;2023-02-15T11:18:46;96151.31;;;9.71;60.08
6134;BME280;3098;42.678;23.364;2023-02-15T11:21:21;96003.56;;;9.04;57.72
6134;BME280;3098;42.678;23.364;2023-02-15T11:23:52;95980.44;;;8.55;58.27
6134;BME280;3098;42.678;23.364;2023-02-15T11:26:28;95833.66;;;7.59;58.49
6134;BME280;3098;42.678;23.364;2023-02-15T11:29:00;95912.56;;;8.26;59.23
6134;BME280;3098;42.678;23.364;2023-02-15T11:31:34;96044.78;;;9.20;57.14
6134;BME280;3098;42.678;23.364;2023-02-15T11:34:10;96156.47;;;10.06;57.22
6134;BME280;3098;42.678;23.364;2023-02-15T11:36:41;96168.03;;;9.66;57.74
6134;BME280;3098;42.678;23.364;2023-02-15T11:39:11;95980.22;;;8.32;58.42
6134;BME280;3098;42.678;23.364;2023-02-15T11:41:47;96160.75;;;9.03;59.26
6134;BME280;3098;42.678;23.364;2023-02-15T11:44:21;96108.69;;;9.67;57.38
6134;BME280;3098;42.678;23.364;2023-02-15T11:46:52;96104.94;;;9.78;56.89
6134;BME280;3098;42.678;23.364;2023-02-15T11:49:26;96071.28;;;9.74;56.19
6134;BME280;3098;42.678;23.364;2023-02-15T11:51:55;96129.50;;;9.30;58.36
6134;BME280;3098;42.678;23.364;2023-02-15T11:54:28;95961.22;;;7.79;58.90
6134;BME280;3098;42.678;23.364;2023-02-15T11:57:06;96086.22;;;8.30;60.92
6134;BME280;3098;42.678;23.364;2023-02-15T11:59:40;96124.50;;;9.13;59.91
6134;BME280;3098;42.678;23.364;2023-02-15T12:02:17;96040.72;;;7.83;62.27
6134;BME280;3098;42.678;23.364;2023-02-15T12:04:49;95980.59;;;7.03;63.18
6134;BME280;3098;42.678;23.364;2023-02-15T12:07:22;96113.16;;;8.22;63.33
6134;BME280;3098;42.678;23.364;2023-02-15T12:09:56;95979.38;;;6.63;65.36
6134;BME280;3098;42.678;23.364;2023-02-15T12:12:28;96087.91;;;7.54;65.55
6134;BME280;3098;42.678;23.364;2023-02-15T12:14:58;96094.94;;;8.41;63.00
6134;BME280;3098;42.678;23.364;2023-02-15T12:17:27;96080.38;;;8.03;62.95
6134;BME280;3098;42.678;23.364;2023-02-15T12:20:00;95885.06;;;6.80;62.78
6134;BME280;3098;42.678;23.364;2023-02-15T12:22:31;96042.81;;;8.06;62.52
6134;BME280;3098;42.678;23.364;2023-02-15T12:25:04;96018.00;;;7.92;62.45
6134;BME280;3098;42.678;23.364;2023-02-15T12:27:43;96115.53;;;8.08;64.22
6134;BME280;3098;42.678;23.364;2023-02-15T12:30:18;95885.94;;;6.39;64.71
6134;BME280;3098;42.678;23.364;2023-02-15T12:32:49;96102.72;;;7.60;65.86
6134;BME280;3098;42.678;23.364;2023-02-15T12:35:28;96100.38;;;7.79;65.49
6134;BME280;3098;42.678;23.364;2023-02-15T12:38:09;96090.56;;;7.64;65.20
6134;BME280;3098;42.678;23.364;2023-02-15T12:40:58;96056.03;;;7.96;63.87
6134;BME280;3098;42.678;23.364;2023-02-15T12:43:32;96089.34;;;8.12;63.31
6134;BME280;3098;42.678;23.364;2023-02-15T12:46:24;95993.50;;;6.99;65.35
6134;BME280;3098;42.678;23.364;2023-02-15T12:49:18;96043.56;;;7.51;64.11
6134;BME280;3098;42.678;23.364;2023-02-15T12:51:48;96064.94;;;7.55;65.19
6134;BME280;3098;42.678;23.364;2023-02-15T12:54:17;96014.25;;;7.52;64.14
6134;BME280;3098;42.678;23.364;2023-02-15T12:56:45;96068.69;;;7.69;65.01
6134;BME280;3098;42.678;23.364;2023-02-15T12:59:15;96008.28;;;6.95;66.68
6134;BME280;3098;42.678;23.364;2023-02-15T13:01:46;95948.63;;;6.27;68.20
6134;BME280;3098;42.678;23.364;2023-02-15T13:04:22;96066.50;;;6.88;69.14
6134;BME280;3098;42.678;23.364;2023-02-15T13:06:52;96072.00;;;6.82;69.86
6134;BME280;3098;42.678;23.364;2023-02-15T13:09:26;95994.25;;;6.38;69.43
6134;BME280;3098;42.678;23.364;2023-02-15T13:12:14;95998.50;;;6.44;70.07
6134;BME280;3098;42.678;23.364;2023-02-15T13:14:48;96063.38;;;6.97;69.88
6134;BME280;3098;42.678;23.364;2023-02-15T13:17:19;95975.47;;;6.24;69.77
6134;BME280;3098;42.678;23.364;2023-02-15T13:19:52;95886.66;;;5.82;70.02
6134;BME280;3098;42.678;23.364;2023-02-15T13:22:25;95853.09;;;5.63;69.48
6134;BME280;3098;42.678;23.364;2023-02-15T13:24:58;96005.00;;;6.31;70.28
6134;BME280;3098;42.678;23.364;2023-02-15T13:27:32;95975.63;;;6.07;71.18
6134;BME280;3098;42.678;23.364;2023-02-15T13:30:08;96047.91;;;6.63;71.67
6134;BME280;3098;42.678;23.364;2023-02-15T13:32:39;96065.69;;;6.83;71.35
6134;BME280;3098;42.678;23.364;2023-02-15T13:35:14;95942.91;;;5.98;71.63
6134;BME280;3098;42.678;23.364;2023-02-15T13:38:06;96069.44;;;6.50;72.29
6134;BME280;3098;42.678;23.364;2023-02-15T13:40:43;96059.50;;;6.25;73.32
6134;BME280;3098;42.678;23.364;2023-02-15T13:43:21;96027.84;;;6.20;73.20
6134;BME280;3098;42.678;23.364;2023-02-15T13:46:07;95983.06;;;6.20;72.52
6134;BME280;3098;42.678;23.364;2023-02-15T13:48:44;95988.03;;;6.12;72.31
6134;BME280;3098;42.678;23.364;2023-02-15T13:51:21;96016.69;;;6.08;72.59